DLH4MJ EDDK-EDJA
Flight info
| Callsign | DLH4MJ |
|---|---|
| Flight time | N/A |
| Altitude | 31000 |
| Route | KUMIK1B KUMIK Y854 BOMBI T104 DKB Z818 ELVAG Z76 ABGAS Z79 LUPOL LUPOL1C |
| Aircraft | A320/M-SDE3FGHIRWY/LB1 |
Departure
| Time | 2026-05-04 18:49 |
|---|---|
| Airport | Cologne Bonn Airport (EDDK) |
Arrival
| Time | N/A |
|---|---|
| Airport | Memmingen Allgau Airport (EDJA) |
| Time | Latitude | Longitude | Altitude | Speed | Heading |
|---|---|---|---|---|---|
| 2026-05-04 18:24 | 50.87679 | 7.12393 | 231 ft | 0 kts | 282° |
| 2026-05-04 18:33 | 50.87678 | 7.12399 | 231 ft | 2 kts | 282° |
| 2026-05-04 18:34 | 50.87674 | 7.12424 | 235 ft | 2 kts | 284° |
| 2026-05-04 18:34 | 50.87670 | 7.12449 | 231 ft | 2 kts | 284° |
| 2026-05-04 18:34 | 50.87667 | 7.12474 | 232 ft | 2 kts | 293° |
| 2026-05-04 18:34 | 50.87658 | 7.12497 | 237 ft | 2 kts | 359° |
| 2026-05-04 18:35 | 50.87665 | 7.12499 | 234 ft | 0 kts | 14° |
| 2026-05-04 18:36 | 50.87720 | 7.12524 | 233 ft | 10 kts | 23° |
| 2026-05-04 18:37 | 50.87761 | 7.12582 | 235 ft | 6 kts | 62° |
| 2026-05-04 18:37 | 50.87767 | 7.12672 | 237 ft | 15 kts | 99° |
| 2026-05-04 18:37 | 50.87701 | 7.12797 | 239 ft | 15 kts | 138° |
| 2026-05-04 18:37 | 50.87628 | 7.12902 | 242 ft | 13 kts | 137° |
| 2026-05-04 18:38 | 50.87567 | 7.12993 | 245 ft | 11 kts | 136° |
| 2026-05-04 18:38 | 50.87500 | 7.13088 | 245 ft | 15 kts | 137° |
| 2026-05-04 18:38 | 50.87422 | 7.13200 | 247 ft | 15 kts | 138° |
| 2026-05-04 18:38 | 50.87341 | 7.13316 | 247 ft | 17 kts | 137° |
| 2026-05-04 18:39 | 50.87257 | 7.13438 | 250 ft | 16 kts | 139° |
| 2026-05-04 18:39 | 50.87175 | 7.13555 | 252 ft | 16 kts | 137° |
| 2026-05-04 18:39 | 50.87102 | 7.13665 | 257 ft | 13 kts | 137° |
| 2026-05-04 18:39 | 50.87036 | 7.13758 | 260 ft | 12 kts | 136° |
| 2026-05-04 18:40 | 50.86959 | 7.13872 | 263 ft | 20 kts | 137° |
| 2026-05-04 18:40 | 50.86852 | 7.14025 | 264 ft | 21 kts | 137° |
| 2026-05-04 18:40 | 50.86742 | 7.14142 | 265 ft | 16 kts | 164° |
| 2026-05-04 18:40 | 50.86652 | 7.14256 | 263 ft | 18 kts | 139° |
| 2026-05-04 18:41 | 50.86562 | 7.14385 | 266 ft | 18 kts | 137° |
| 2026-05-04 18:41 | 50.86472 | 7.14521 | 269 ft | 17 kts | 135° |
| 2026-05-04 18:41 | 50.86387 | 7.14639 | 273 ft | 16 kts | 138° |
| 2026-05-04 18:41 | 50.86304 | 7.14758 | 275 ft | 16 kts | 137° |
| 2026-05-04 18:42 | 50.86223 | 7.14878 | 277 ft | 19 kts | 137° |
| 2026-05-04 18:42 | 50.86117 | 7.15031 | 280 ft | 21 kts | 138° |
| 2026-05-04 18:42 | 50.86010 | 7.15186 | 281 ft | 21 kts | 137° |
| 2026-05-04 18:42 | 50.85905 | 7.15340 | 285 ft | 20 kts | 138° |
| 2026-05-04 18:43 | 50.85802 | 7.15487 | 291 ft | 19 kts | 137° |
| 2026-05-04 18:43 | 50.85707 | 7.15624 | 293 ft | 18 kts | 137° |
| 2026-05-04 18:43 | 50.85613 | 7.15760 | 299 ft | 18 kts | 138° |
| 2026-05-04 18:43 | 50.85518 | 7.15898 | 297 ft | 19 kts | 138° |
| 2026-05-04 18:44 | 50.85515 | 7.16051 | 301 ft | 15 kts | 44° |
| 2026-05-04 18:44 | 50.85541 | 7.16092 | 304 ft | 15 kts | 47° |
| 2026-05-04 18:44 | 50.85619 | 7.16226 | 305 ft | 0 kts | 47° |
| 2026-05-04 18:46 | 50.85630 | 7.16247 | 306 ft | 10 kts | 47° |
| 2026-05-04 18:46 | 50.85696 | 7.16298 | 304 ft | 11 kts | 348° |
| 2026-05-04 18:46 | 50.85727 | 7.16267 | 304 ft | 0 kts | 317° |
| 2026-05-04 18:48 | 50.85728 | 7.16266 | 304 ft | 1 kts | 317° |
| 2026-05-04 18:48 | 50.85767 | 7.16209 | 302 ft | 33 kts | 317° |
| 2026-05-04 18:48 | 50.86130 | 7.15684 | 289 ft | 105 kts | 317° |
| 2026-05-04 18:48 | 50.86820 | 7.14691 | 272 ft | 160 kts | 318° |
| 2026-05-04 18:49 | 50.87722 | 7.13391 | 519 ft | 180 kts | 317° |
| 2026-05-04 18:49 | 50.88672 | 7.12015 | 1282 ft | 187 kts | 317° |
| 2026-05-04 18:49 | 50.89786 | 7.10901 | 1840 ft | 200 kts | 344° |
| 2026-05-04 18:49 | 50.91256 | 7.11017 | 2087 ft | 225 kts | 24° |
| 2026-05-04 18:50 | 50.92595 | 7.12340 | 2865 ft | 225 kts | 40° |
| 2026-05-04 18:50 | 50.93618 | 7.14246 | 3605 ft | 230 kts | 60° |
| 2026-05-04 18:50 | 50.94332 | 7.16579 | 4162 ft | 246 kts | 67° |
| 2026-05-04 18:50 | 50.95051 | 7.19142 | 4558 ft | 269 kts | 67° |
| 2026-05-04 18:51 | 50.95872 | 7.21876 | 5242 ft | 279 kts | 65° |
| 2026-05-04 18:51 | 50.96770 | 7.24643 | 6088 ft | 284 kts | 65° |
| 2026-05-04 18:51 | 50.97516 | 7.27551 | 6860 ft | 286 kts | 84° |
| 2026-05-04 18:51 | 50.97338 | 7.30652 | 7564 ft | 284 kts | 114° |
| 2026-05-04 18:52 | 50.96590 | 7.33537 | 8460 ft | 283 kts | 114° |
| 2026-05-04 18:52 | 50.95982 | 7.36546 | 9293 ft | 289 kts | 109° |
| 2026-05-04 18:52 | 50.95501 | 7.39669 | 10123 ft | 292 kts | 107° |
| 2026-05-04 18:52 | 50.95009 | 7.42855 | 10591 ft | 308 kts | 108° |
| 2026-05-04 18:53 | 50.94437 | 7.46254 | 10792 ft | 331 kts | 109° |
| 2026-05-04 18:53 | 50.93802 | 7.49863 | 11191 ft | 346 kts | 109° |
| 2026-05-04 18:53 | 50.93142 | 7.53595 | 11851 ft | 351 kts | 109° |
| 2026-05-04 18:53 | 50.92485 | 7.57323 | 12563 ft | 355 kts | 108° |
| 2026-05-04 18:54 | 50.91820 | 7.61114 | 13284 ft | 359 kts | 108° |
| 2026-05-04 18:54 | 50.91149 | 7.64949 | 13951 ft | 363 kts | 108° |
| 2026-05-04 18:54 | 50.90471 | 7.68836 | 14555 ft | 367 kts | 108° |
| 2026-05-04 18:54 | 50.89789 | 7.72747 | 15165 ft | 370 kts | 108° |
| 2026-05-04 18:55 | 50.89097 | 7.76706 | 15771 ft | 374 kts | 108° |
| 2026-05-04 18:55 | 50.87676 | 7.84761 | 16985 ft | 381 kts | 108° |
| 2026-05-04 18:55 | 50.86963 | 7.88769 | 17562 ft | 384 kts | 108° |
| 2026-05-04 18:56 | 50.86242 | 7.92810 | 18157 ft | 388 kts | 108° |
| 2026-05-04 18:56 | 50.85493 | 7.96993 | 18693 ft | 391 kts | 108° |
| 2026-05-04 18:56 | 50.84706 | 8.01059 | 19180 ft | 393 kts | 114° |
| 2026-05-04 18:56 | 50.83493 | 8.04939 | 19675 ft | 393 kts | 125° |
| 2026-05-04 18:57 | 50.81835 | 8.08374 | 20186 ft | 393 kts | 136° |
| 2026-05-04 18:57 | 50.79791 | 8.11228 | 20693 ft | 392 kts | 147° |
| 2026-05-04 18:57 | 50.77496 | 8.13574 | 21199 ft | 394 kts | 150° |
| 2026-05-04 18:57 | 50.75168 | 8.15900 | 21712 ft | 397 kts | 150° |
| 2026-05-04 18:58 | 50.72819 | 8.18258 | 22213 ft | 401 kts | 150° |
| 2026-05-04 18:58 | 50.70464 | 8.20629 | 22700 ft | 404 kts | 150° |
| 2026-05-04 18:58 | 50.68088 | 8.23016 | 23179 ft | 406 kts | 150° |
| 2026-05-04 18:58 | 50.65699 | 8.25412 | 23634 ft | 409 kts | 150° |
| 2026-05-04 18:59 | 50.63290 | 8.27831 | 24031 ft | 411 kts | 149° |
| 2026-05-04 18:59 | 50.61096 | 8.30778 | 24421 ft | 419 kts | 135° |
| 2026-05-04 18:59 | 50.59178 | 8.34240 | 24805 ft | 422 kts | 134° |
| 2026-05-04 18:59 | 50.57269 | 8.37777 | 25181 ft | 424 kts | 134° |
| 2026-05-04 19:00 | 50.55359 | 8.41328 | 25597 ft | 425 kts | 134° |
| 2026-05-04 19:00 | 50.53461 | 8.44871 | 26087 ft | 424 kts | 134° |
| 2026-05-04 19:00 | 50.51564 | 8.48422 | 26583 ft | 423 kts | 134° |
| 2026-05-04 19:00 | 50.49610 | 8.51858 | 26924 ft | 422 kts | 142° |
| 2026-05-04 19:01 | 50.47315 | 8.54759 | 27098 ft | 425 kts | 146° |
| 2026-05-04 19:01 | 50.44965 | 8.57603 | 27386 ft | 428 kts | 146° |
| 2026-05-04 19:01 | 50.42621 | 8.60417 | 27705 ft | 430 kts | 146° |
| 2026-05-04 19:01 | 50.40233 | 8.63270 | 28011 ft | 432 kts | 146° |
| 2026-05-04 19:02 | 50.37845 | 8.66123 | 28314 ft | 434 kts | 146° |
| 2026-05-04 19:02 | 50.35431 | 8.69011 | 28617 ft | 436 kts | 146° |
| 2026-05-04 19:02 | 50.33015 | 8.71900 | 28930 ft | 438 kts | 146° |
| 2026-05-04 19:02 | 50.30582 | 8.74810 | 29201 ft | 440 kts | 146° |
| 2026-05-04 19:03 | 50.28146 | 8.77723 | 29483 ft | 442 kts | 146° |
| 2026-05-04 19:03 | 50.25696 | 8.80651 | 29761 ft | 443 kts | 146° |
| 2026-05-04 19:03 | 50.23244 | 8.83579 | 30027 ft | 445 kts | 146° |
| 2026-05-04 19:03 | 50.20781 | 8.86514 | 30233 ft | 447 kts | 146° |
| 2026-05-04 19:04 | 50.18294 | 8.89472 | 30453 ft | 448 kts | 147° |
| 2026-05-04 19:04 | 50.15808 | 8.92426 | 30709 ft | 448 kts | 147° |
| 2026-05-04 19:04 | 50.13366 | 8.95324 | 30923 ft | 448 kts | 147° |
| 2026-05-04 19:04 | 50.10895 | 8.98253 | 30976 ft | 440 kts | 147° |
| 2026-05-04 19:05 | 50.05941 | 9.04115 | 30978 ft | 453 kts | 147° |
| 2026-05-04 19:05 | 50.00871 | 9.10086 | 30975 ft | 459 kts | 147° |
| 2026-05-04 19:06 | 49.95778 | 9.16069 | 30975 ft | 460 kts | 147° |
| 2026-05-04 19:06 | 49.90664 | 9.22067 | 30977 ft | 460 kts | 147° |
| 2026-05-04 19:07 | 49.85550 | 9.28056 | 30973 ft | 460 kts | 147° |
| 2026-05-04 19:07 | 49.80438 | 9.34013 | 30969 ft | 460 kts | 147° |
| 2026-05-04 19:08 | 49.75342 | 9.39931 | 30969 ft | 460 kts | 147° |
| 2026-05-04 19:08 | 49.70218 | 9.45880 | 30976 ft | 461 kts | 147° |
| 2026-05-04 19:09 | 49.65082 | 9.51821 | 30975 ft | 461 kts | 147° |
| 2026-05-04 19:09 | 49.59942 | 9.57751 | 30977 ft | 461 kts | 147° |
| 2026-05-04 19:10 | 49.54799 | 9.63668 | 30980 ft | 461 kts | 147° |
| 2026-05-04 19:10 | 49.49662 | 9.69551 | 30718 ft | 461 kts | 147° |
| 2026-05-04 19:11 | 49.47083 | 9.72504 | 30471 ft | 461 kts | 147° |
| 2026-05-04 19:11 | 49.44507 | 9.75449 | 30224 ft | 461 kts | 147° |
| 2026-05-04 19:11 | 49.41929 | 9.78392 | 29966 ft | 462 kts | 147° |
| 2026-05-04 19:11 | 49.39368 | 9.81364 | 29677 ft | 464 kts | 144° |
| 2026-05-04 19:12 | 49.37012 | 9.84783 | 29397 ft | 469 kts | 136° |
| 2026-05-04 19:12 | 49.32675 | 9.92274 | 28849 ft | 470 kts | 135° |
| 2026-05-04 19:12 | 49.30502 | 9.96024 | 28562 ft | 471 kts | 135° |
| 2026-05-04 19:13 | 49.28322 | 9.99770 | 28292 ft | 471 kts | 136° |
| 2026-05-04 19:13 | 49.25860 | 10.03033 | 28021 ft | 465 kts | 150° |
| 2026-05-04 19:13 | 49.22998 | 10.05207 | 27751 ft | 459 kts | 164° |
| 2026-05-04 19:13 | 49.19896 | 10.06218 | 27487 ft | 454 kts | 178° |
| 2026-05-04 19:14 | 49.16756 | 10.06075 | 27230 ft | 452 kts | 188° |
| 2026-05-04 19:14 | 49.13619 | 10.05583 | 26995 ft | 453 kts | 188° |
| 2026-05-04 19:14 | 49.10478 | 10.05076 | 26742 ft | 455 kts | 188° |
| 2026-05-04 19:14 | 49.07327 | 10.04563 | 26485 ft | 456 kts | 188° |
| 2026-05-04 19:15 | 49.04170 | 10.04049 | 26232 ft | 457 kts | 188° |
| 2026-05-04 19:15 | 49.01000 | 10.03532 | 25980 ft | 458 kts | 188° |
| 2026-05-04 19:15 | 48.97823 | 10.03017 | 25731 ft | 459 kts | 188° |
| 2026-05-04 19:15 | 48.94680 | 10.02511 | 25488 ft | 460 kts | 187° |
| 2026-05-04 19:16 | 48.91496 | 10.02004 | 25243 ft | 462 kts | 187° |
| 2026-05-04 19:16 | 48.88297 | 10.01500 | 24604 ft | 461 kts | 187° |
| 2026-05-04 19:16 | 48.85111 | 10.00999 | 23845 ft | 459 kts | 187° |
| 2026-05-04 19:16 | 48.81938 | 10.00498 | 23313 ft | 459 kts | 187° |
| 2026-05-04 19:17 | 48.78777 | 9.99998 | 22769 ft | 456 kts | 187° |
| 2026-05-04 19:17 | 48.75630 | 9.99501 | 22238 ft | 453 kts | 187° |
| 2026-05-04 19:17 | 48.72497 | 9.99504 | 21696 ft | 452 kts | 173° |
| 2026-05-04 19:17 | 48.69481 | 10.00856 | 21187 ft | 453 kts | 157° |
| 2026-05-04 19:18 | 48.66677 | 10.03019 | 20682 ft | 451 kts | 154° |
| 2026-05-04 19:18 | 48.63914 | 10.05230 | 20191 ft | 448 kts | 154° |
| 2026-05-04 19:18 | 48.61172 | 10.07427 | 19701 ft | 445 kts | 154° |
| 2026-05-04 19:18 | 48.58447 | 10.09608 | 19221 ft | 442 kts | 154° |